Etusivu
METAR-TAF:

METAR-TAF

Lentoasemat :

Flores, Guatemala

Leveyspiiri: 16-54-50N, Pituuspiiri: 089-51-59W, korkeus merenpinnasta: 118 m

Tämänhetkinen sää

Tämä raportti tehtiin 37 minuuttia sitten, kello 02.00 UTC
Tuuli 10 kn idästä
Lämpötila 31°C
Kosteus 63%
Ilmanpaine 1010 hPa
Näkyvyys 10 km tai enemmän
ei pilviä alle 1500 m:ssä eikä cumulonimbus-pilviä

METAR: MGMM 220200Z 08010KT CAVOK 31/23 Q1010 A2983

Aika: 20:37 (02:37 UTC)

Sääennuste

Tämä raportti tehtiin 3 tuntia ja 37 minuuttia sitten, kello 23.00 UTC
Ennuste voimassa 22. päivästä klo 00 UTC - 22. päivään klo 24 UTC
Tuuli kn pohjoisesta
Näkyvyys 10 km tai enemmän
ei pilviä alle 1500 m:ssä eikä cumulonimbus-pilviä
Ajoittain
22. päivästä klo 10 UTC - 22. päivään klo 13 UTC
Näkyvyys: 8000 m
Tulossa
22. päivästä klo 15 UTC - 22. päivään klo 17 UTC
Tuuli 8 kn idästä
Näkyvyys: 8000 m

TAF: MGMM 212300Z 2200/2224 00000KT CAVOK TX39/2220Z TN24/2212Z TEMPO 2210/2213 8000 NSC BECMG 2215/2217 09008KT 8000 NSC

Säähavainnot ja -ennusteet yli 4000 lentoasemalta (METAR- ja TAF-raportit).

Käytössä olevat sääasemat on merkitty karttaan keltaisilla ja punaisilla pisteillä.

Aseta hiiri pisteen päälle nähdäksesi sääaseman nimen.

Klikkaa sitten nähdäksesi säähavainnot ja -ennusteet.

Kartan vaihtaminen: klikkaa mustalla rastilla varustettuja vihreitä pisteitä, niin voit zoomata sisään; viivalla varustettua vihreää pistettä, niin voit zoomata ulos tai vihreitä nuolia, niin pääset viereisille kartoille.


METAR-TAF: